createdAt,value
2022-08-05T00:01:28.512Z,45.02
2022-08-05T00:03:57.630Z,44.45
2022-08-05T00:06:32.161Z,44.53
2022-08-05T00:09:00.685Z,44.50
2022-08-05T00:11:34.808Z,44.85
2022-08-05T00:16:57.633Z,45.34
2022-08-05T00:19:33.337Z,44.87
2022-08-05T00:22:01.503Z,44.25
2022-08-05T00:24:30.888Z,44.75
2022-08-05T00:26:58.715Z,44.53
2022-08-05T00:29:37.827Z,44.13
2022-08-05T00:32:12.219Z,44.73
2022-08-05T00:35:04.446Z,44.49
2022-08-05T00:37:35.668Z,44.03
2022-08-05T00:40:17.941Z,43.32
2022-08-05T00:42:55.181Z,43.43
2022-08-05T00:45:28.239Z,44.14
2022-08-05T00:48:10.104Z,43.23
2022-08-05T00:50:37.981Z,43.64
2022-08-05T00:53:09.903Z,43.71
2022-08-05T00:55:51.752Z,43.90
2022-08-05T00:58:19.114Z,43.60
2022-08-05T01:00:46.608Z,43.45
2022-08-05T01:03:22.680Z,43.02
2022-08-05T01:05:54.553Z,43.02
2022-08-05T01:08:39.142Z,43.76
2022-08-05T01:11:38.974Z,43.50
2022-08-05T01:14:08.892Z,44.23
2022-08-05T01:16:35.864Z,43.44
2022-08-05T01:19:46.372Z,43.87
2022-08-05T01:22:10.901Z,43.95
2022-08-05T01:24:54.472Z,43.51
2022-08-05T01:27:22.250Z,43.73
2022-08-05T01:29:50.058Z,44.11
2022-08-05T01:32:20.920Z,44.00
2022-08-05T01:34:52.463Z,44.22
2022-08-05T01:37:37.484Z,44.01
2022-08-05T01:40:12.666Z,44.13
2022-08-05T01:42:40.749Z,44.46
2022-08-05T01:45:08.337Z,44.68
2022-08-05T01:47:39.406Z,43.71
2022-08-05T01:50:15.182Z,43.64
2022-08-05T01:52:43.333Z,44.50
2022-08-05T01:55:11.258Z,45.04
2022-08-05T01:58:11.775Z,44.36
2022-08-05T02:00:30.248Z,44.06
2022-08-05T02:02:58.458Z,44.94
2022-08-05T02:05:29.758Z,44.85
2022-08-05T02:08:01.058Z,44.86
2022-08-05T02:10:31.194Z,44.94
2022-08-05T02:13:01.839Z,45.60
2022-08-05T02:15:35.417Z,45.87
2022-08-05T02:18:30.855Z,45.53
2022-08-05T02:21:05.666Z,45.29
2022-08-05T02:23:33.536Z,45.47
2022-08-05T02:26:01.004Z,45.79
2022-08-05T02:28:32.972Z,45.20
2022-08-05T02:31:04.556Z,45.83
2022-08-05T02:33:38.247Z,45.91
2022-08-05T02:36:06.511Z,45.84
2022-08-05T02:38:36.253Z,45.67
2022-08-05T02:41:06.565Z,46.54
2022-08-05T02:44:06.066Z,46.06
2022-08-05T02:46:31.827Z,46.63
2022-08-05T02:48:58.832Z,46.97
2022-08-05T02:51:48.446Z,46.49
2022-08-05T02:54:35.702Z,46.75
2022-08-05T02:57:00.262Z,47.16
2022-08-05T02:59:27.999Z,47.61
2022-08-05T03:01:58.398Z,47.44
2022-08-05T03:04:25.532Z,46.92
2022-08-05T03:06:59.401Z,46.86
2022-08-05T03:09:36.436Z,47.05
2022-08-05T03:12:05.825Z,48.15
2022-08-05T03:14:32.569Z,47.51
2022-08-05T03:17:00.651Z,48.21
2022-08-05T03:19:34.439Z,48.37
2022-08-05T03:22:04.979Z,48.27
2022-08-05T03:24:47.296Z,47.75
2022-08-05T03:27:18.248Z,47.88
2022-08-05T03:30:07.447Z,48.67
2022-08-05T03:32:31.992Z,48.50
2022-08-05T03:35:00.720Z,48.20
2022-08-05T03:37:27.597Z,48.24
2022-08-05T03:39:58.948Z,48.20
2022-08-05T03:42:29.134Z,48.22
2022-08-05T03:44:58.648Z,48.73
2022-08-05T03:47:25.647Z,48.48
2022-08-05T03:49:57.747Z,48.84
2022-08-05T03:52:37.936Z,48.52
2022-08-05T03:56:04.809Z,49.51
2022-08-05T03:57:59.159Z,49.28
2022-08-05T04:00:31.476Z,48.04
2022-08-05T04:02:59.316Z,49.13
2022-08-05T04:05:28.087Z,49.25
2022-08-05T04:08:05.851Z,49.07
2022-08-05T04:10:42.062Z,49.71
2022-08-05T04:13:09.065Z,49.52
2022-08-05T04:15:36.401Z,50.41
2022-08-05T04:18:07.234Z,49.63
2022-08-05T04:20:36.609Z,49.91
2022-08-05T04:23:03.671Z,49.90
2022-08-05T04:25:57.519Z,50.40
2022-08-05T04:28:17.810Z,50.28
2022-08-05T04:30:45.170Z,50.46
2022-08-05T04:33:12.466Z,49.67
2022-08-05T04:36:16.226Z,50.56
2022-08-05T04:38:39.516Z,49.78
2022-08-05T04:41:09.311Z,49.54
2022-08-05T04:43:37.193Z,50.40
2022-08-05T04:46:05.170Z,50.07
2022-08-05T04:48:32.377Z,50.22
2022-08-05T04:51:02.059Z,50.57
2022-08-05T04:53:33.365Z,50.68
2022-08-05T04:56:32.931Z,49.83
2022-08-05T04:58:50.020Z,49.05
2022-08-05T05:02:08.159Z,49.20
2022-08-05T05:04:04.692Z,48.56
2022-08-05T05:06:38.725Z,47.93
2022-08-05T05:09:07.555Z,48.86
2022-08-05T05:11:52.909Z,48.19
2022-08-05T05:14:27.973Z,48.68
2022-08-05T05:16:59.971Z,48.14
2022-08-05T05:19:36.167Z,47.63
2022-08-05T05:22:24.411Z,46.87
2022-08-05T05:24:58.006Z,45.56
2022-08-05T05:27:44.750Z,45.07
2022-08-05T05:30:29.783Z,44.80
2022-08-05T05:33:00.407Z,44.62
2022-08-05T05:35:29.158Z,44.64
2022-08-05T05:38:03.086Z,44.63
2022-08-05T05:40:32.629Z,43.75
2022-08-05T05:43:02.074Z,44.03
2022-08-05T05:45:29.153Z,43.54
2022-08-05T05:48:06.811Z,43.32
2022-08-05T05:50:41.268Z,43.51
2022-08-05T05:53:21.117Z,42.13
2022-08-05T05:55:52.450Z,41.93
2022-08-05T05:58:32.056Z,41.13
2022-08-05T06:01:12.356Z,41.54
2022-08-05T06:04:00.732Z,41.39
2022-08-05T06:06:27.957Z,40.70
2022-08-05T06:08:58.689Z,41.20
2022-08-05T06:11:26.117Z,39.65
2022-08-05T06:13:55.595Z,40.25
2022-08-05T06:16:28.978Z,39.95
2022-08-05T06:19:00.965Z,38.85
2022-08-05T06:21:36.026Z,39.79
2022-08-05T06:24:06.049Z,39.29
2022-08-05T06:26:35.160Z,38.81
2022-08-05T06:29:03.519Z,38.07
2022-08-05T06:31:33.582Z,38.28
2022-08-05T06:34:07.591Z,38.32
2022-08-05T06:36:55.298Z,36.83
2022-08-05T06:39:24.675Z,36.65
2022-08-05T06:41:55.486Z,36.48
2022-08-05T06:44:24.382Z,35.72
2022-08-05T06:46:52.770Z,33.76
2022-08-05T06:49:50.551Z,33.93
2022-08-05T06:52:36.794Z,32.13
2022-08-05T06:54:57.215Z,31.98
2022-08-05T06:57:57.378Z,31.20
2022-08-05T07:00:11.125Z,31.41
2022-08-05T07:02:46.101Z,30.55
2022-08-05T07:05:14.411Z,28.55
2022-08-05T07:07:48.980Z,29.26
2022-08-05T07:10:16.379Z,29.26
2022-08-05T07:13:01.918Z,27.78
2022-08-05T07:16:00.998Z,27.67
2022-08-05T07:18:32.583Z,28.17
2022-08-05T07:21:04.810Z,27.04
2022-08-05T07:23:32.604Z,26.10
2022-08-05T07:25:59.489Z,24.73
2022-08-05T07:28:26.755Z,25.16
2022-08-05T07:30:55.129Z,27.04
2022-08-05T07:33:36.890Z,25.95
2022-08-05T07:36:20.862Z,24.84
2022-08-05T07:38:48.996Z,24.24
2022-08-05T07:42:14.569Z,23.18
2022-08-05T07:44:05.282Z,23.79
2022-08-05T07:46:37.709Z,24.37
2022-08-05T07:49:06.223Z,22.83
2022-08-05T07:51:48.795Z,22.55
2022-08-05T07:54:30.924Z,23.62
2022-08-05T07:57:18.171Z,23.06
2022-08-05T07:59:48.978Z,22.96
2022-08-05T08:02:17.903Z,22.81
2022-08-05T08:04:46.446Z,21.63
2022-08-05T08:07:13.709Z,22.58
2022-08-05T08:09:40.458Z,21.71
2022-08-05T08:12:33.323Z,22.99
2022-08-05T08:14:54.335Z,23.26
2022-08-05T08:17:21.695Z,24.12
2022-08-05T08:20:43.759Z,21.40
2022-08-05T08:22:39.708Z,21.68
2022-08-05T08:25:16.514Z,21.58
2022-08-05T08:27:51.333Z,21.19
2022-08-05T08:30:29.727Z,21.01
2022-08-05T08:33:13.896Z,21.82
2022-08-05T08:35:52.982Z,21.02
2022-08-05T08:38:32.154Z,21.94
2022-08-05T08:41:08.557Z,20.51
2022-08-05T08:45:20.171Z,20.44
2022-08-05T08:46:28.018Z,21.65
2022-08-05T08:49:06.214Z,21.86
2022-08-05T08:52:06.052Z,21.38
2022-08-05T08:54:30.547Z,21.10
2022-08-05T08:56:59.199Z,21.30
2022-08-05T08:59:27.391Z,20.08
2022-08-05T09:01:57.438Z,21.10
2022-08-05T09:04:30.366Z,20.44
2022-08-05T09:06:58.345Z,20.88
2022-08-05T09:09:25.967Z,20.84
2022-08-05T09:12:03.328Z,20.85
2022-08-05T09:14:59.202Z,20.46
2022-08-05T09:17:41.106Z,21.27
2022-08-05T09:20:08.897Z,20.02
2022-08-05T09:22:54.915Z,20.78
2022-08-05T09:26:03.017Z,19.62
2022-08-05T09:28:23.396Z,20.87
2022-08-05T09:30:57.239Z,20.06
2022-08-05T09:33:25.402Z,20.04
2022-08-05T09:36:11.542Z,20.40
2022-08-05T09:38:39.060Z,19.25
2022-08-05T09:41:07.388Z,19.36
2022-08-05T09:43:41.473Z,20.11
2022-08-05T09:46:28.083Z,18.52
2022-08-05T09:49:06.786Z,19.44
2022-08-05T09:51:38.162Z,19.82
2022-08-05T09:54:10.040Z,20.36
2022-08-05T09:56:38.051Z,20.59
2022-08-05T09:59:05.104Z,19.84
2022-08-05T10:01:33.767Z,19.35
2022-08-05T10:04:10.572Z,19.59
2022-08-05T10:06:40.760Z,18.48
2022-08-05T10:09:27.581Z,19.45
2022-08-05T10:11:55.220Z,18.62
2022-08-05T10:14:24.148Z,19.58
2022-08-05T10:16:56.300Z,19.56
2022-08-05T10:20:02.991Z,18.07
2022-08-05T10:22:15.781Z,20.08
2022-08-05T10:24:57.286Z,18.10
2022-08-05T10:27:26.049Z,18.64
2022-08-05T10:31:21.013Z,20.08
2022-08-05T10:33:02.069Z,18.50
2022-08-05T10:35:40.691Z,19.01
2022-08-05T10:38:11.758Z,18.63
2022-08-05T10:40:43.592Z,17.87
2022-08-05T10:43:35.885Z,18.67
2022-08-05T10:46:06.609Z,18.42
2022-08-05T10:48:39.572Z,18.12
2022-08-05T10:51:29.341Z,17.47
2022-08-05T10:54:01.885Z,17.36
2022-08-05T10:56:52.689Z,17.90
2022-08-05T11:00:02.639Z,16.94
2022-08-05T11:02:34.732Z,17.84
2022-08-05T11:05:03.553Z,17.26
2022-08-05T11:07:32.835Z,18.00
2022-08-05T11:10:21.877Z,16.82
2022-08-05T11:12:50.738Z,16.77
2022-08-05T11:15:23.522Z,16.75
2022-08-05T11:18:29.949Z,17.67
2022-08-05T11:20:59.517Z,17.50
2022-08-05T11:24:02.907Z,17.02
2022-08-05T11:26:28.815Z,16.08
2022-08-05T11:29:12.290Z,16.39
2022-08-05T11:31:57.148Z,16.57
2022-08-05T11:34:52.125Z,16.64
2022-08-05T11:38:30.742Z,16.04
2022-08-05T11:40:50.170Z,16.92
2022-08-05T11:44:01.096Z,16.04
2022-08-05T11:46:27.153Z,16.20
2022-08-05T11:48:56.985Z,16.82
2022-08-05T11:51:44.684Z,17.28
2022-08-05T11:54:33.259Z,16.71
2022-08-05T11:57:02.192Z,16.61
2022-08-05T11:59:41.435Z,16.42
2022-08-05T12:02:29.919Z,17.10
2022-08-05T12:05:00.618Z,15.91
2022-08-05T12:08:09.296Z,15.83
2022-08-05T12:10:20.201Z,16.52
2022-08-05T12:12:59.520Z,16.33
2022-08-05T12:15:38.749Z,15.71
2022-08-05T12:18:10.015Z,16.39
2022-08-05T12:20:40.732Z,16.54
2022-08-05T12:23:09.533Z,15.84
2022-08-05T12:25:49.313Z,16.91
2022-08-05T12:28:31.759Z,16.27
2022-08-05T12:31:02.253Z,16.61
2022-08-05T12:33:36.621Z,17.92
2022-08-05T12:36:09.323Z,16.15
2022-08-05T12:38:38.172Z,17.32
2022-08-05T12:41:12.435Z,15.85
2022-08-05T12:43:58.239Z,16.82
2022-08-05T12:46:28.990Z,16.61
2022-08-05T12:48:59.158Z,16.78
2022-08-05T12:52:13.552Z,17.67
2022-08-05T12:54:26.494Z,16.76
2022-08-05T12:56:57.723Z,16.71
2022-08-05T12:59:46.964Z,17.66
2022-08-05T13:02:12.930Z,16.50
2022-08-05T13:04:52.459Z,17.58
2022-08-05T13:07:55.001Z,16.71
2022-08-05T13:10:11.214Z,18.67
2022-08-05T13:12:51.085Z,17.67
2022-08-05T13:15:41.259Z,17.51
2022-08-05T13:18:19.411Z,17.41
2022-08-05T13:20:50.332Z,17.91
2022-08-05T13:23:22.051Z,17.88
2022-08-05T13:25:59.513Z,18.34
2022-08-05T13:28:28.822Z,17.92
2022-08-05T13:30:57.141Z,16.59
2022-08-05T13:34:21.107Z,17.22
2022-08-05T13:36:12.920Z,17.43
2022-08-05T13:38:42.352Z,18.79
2022-08-05T13:41:11.222Z,17.01
2022-08-05T13:43:45.377Z,16.98
2022-08-05T13:46:43.785Z,16.98
2022-08-05T13:49:10.061Z,16.59
2022-08-05T13:51:41.023Z,16.36
2022-08-05T13:54:13.474Z,17.20
2022-08-05T13:56:45.371Z,17.44
2022-08-05T13:59:20.051Z,16.78
2022-08-05T14:01:58.038Z,16.51
2022-08-05T14:04:49.910Z,16.40
2022-08-05T14:07:56.379Z,16.71
2022-08-05T14:10:09.358Z,16.95
2022-08-05T14:12:37.286Z,16.51
2022-08-05T14:15:05.919Z,16.29
2022-08-05T14:17:51.466Z,16.71
2022-08-05T14:20:22.059Z,17.69
2022-08-05T14:22:54.878Z,17.80
2022-08-05T14:25:25.768Z,17.44
2022-08-05T14:27:55.772Z,16.84
2022-08-05T14:30:22.707Z,16.70
2022-08-05T14:32:54.077Z,17.17
2022-08-05T14:35:22.845Z,16.83
2022-08-05T14:37:53.520Z,16.92
2022-08-05T14:40:24.182Z,16.77
2022-08-05T14:42:51.548Z,17.33
2022-08-05T14:45:18.752Z,17.86
2022-08-05T14:48:02.612Z,17.54
2022-08-05T14:50:31.134Z,17.35
2022-08-05T14:52:59.573Z,16.81
2022-08-05T14:55:28.744Z,17.11
2022-08-05T14:58:11.056Z,16.97
2022-08-05T15:00:39.535Z,17.38
2022-08-05T15:03:26.318Z,17.22
2022-08-05T15:06:07.298Z,18.11
2022-08-05T15:08:58.204Z,17.55
2022-08-05T15:11:51.292Z,17.49
2022-08-05T15:14:33.306Z,17.36
2022-08-05T15:17:01.174Z,17.56
2022-08-05T15:19:28.239Z,17.80
2022-08-05T15:21:58.022Z,17.47
2022-08-05T15:24:27.476Z,17.47
2022-08-05T15:26:55.835Z,18.69
2022-08-05T15:29:22.973Z,17.36
2022-08-05T15:31:53.118Z,17.79
2022-08-05T15:34:32.060Z,17.50
2022-08-05T15:37:06.311Z,17.94
2022-08-05T15:41:04.305Z,18.09
2022-08-05T15:42:55.102Z,17.70
2022-08-05T15:45:16.279Z,17.59
2022-08-05T15:47:45.731Z,17.39
2022-08-05T15:50:15.225Z,17.33
2022-08-05T15:52:52.710Z,17.67
2022-08-05T15:55:24.852Z,17.56
2022-08-05T15:58:08.918Z,18.66
2022-08-05T16:00:57.101Z,18.89
2022-08-05T16:03:23.840Z,17.69
2022-08-05T16:05:52.791Z,18.88
2022-08-05T16:08:23.120Z,17.86
2022-08-05T16:10:57.373Z,17.85
2022-08-05T16:13:24.342Z,18.30
2022-08-05T16:16:01.444Z,17.96
2022-08-05T16:18:32.948Z,20.50
2022-08-05T16:21:04.247Z,18.57
2022-08-05T16:23:54.172Z,18.61
2022-08-05T16:26:18.944Z,18.90
2022-08-05T16:28:53.464Z,19.26
2022-08-05T16:31:21.370Z,18.47
2022-08-05T16:33:48.626Z,19.20
2022-08-05T16:36:20.405Z,19.50
2022-08-05T16:38:54.330Z,19.71
2022-08-05T16:42:14.449Z,19.05
2022-08-05T16:44:09.915Z,20.10
2022-08-05T16:46:41.817Z,20.26
2022-08-05T16:49:22.911Z,19.48
2022-08-05T16:51:50.940Z,19.04
2022-08-05T16:54:23.988Z,19.54
2022-08-05T16:56:54.496Z,19.16
2022-08-05T16:59:21.252Z,19.56
2022-08-05T17:01:53.862Z,19.79
2022-08-05T17:04:24.002Z,19.96
2022-08-05T17:06:55.440Z,20.49
2022-08-05T17:09:23.141Z,21.08
2022-08-05T17:11:53.631Z,20.58
2022-08-05T17:14:37.543Z,20.30
2022-08-05T17:17:06.074Z,20.15
2022-08-05T17:19:32.814Z,20.05
2022-08-05T17:22:00.943Z,20.15
2022-08-05T17:24:38.969Z,20.77
2022-08-05T17:27:10.732Z,21.24
2022-08-05T17:29:41.131Z,21.35
2022-08-05T17:32:11.892Z,21.65
2022-08-05T17:34:47.498Z,21.91
2022-08-05T17:37:39.288Z,22.37
2022-08-05T17:40:04.266Z,22.46
2022-08-05T17:42:32.490Z,22.70
2022-08-05T17:45:17.770Z,23.91
2022-08-05T17:47:52.991Z,24.91
2022-08-05T17:50:29.045Z,25.63
2022-08-05T17:52:59.108Z,26.41
2022-08-05T17:55:37.294Z,26.66
2022-08-05T17:58:06.892Z,26.47
2022-08-05T18:00:34.580Z,27.15
2022-08-05T18:03:02.648Z,27.72
2022-08-05T18:05:35.175Z,28.59
2022-08-05T18:08:02.780Z,28.57
2022-08-05T18:10:32.123Z,28.36
2022-08-05T18:13:00.571Z,28.44
2022-08-05T18:15:31.036Z,28.12
2022-08-05T18:18:05.556Z,28.09
2022-08-05T18:20:38.234Z,27.98
2022-08-05T18:23:09.008Z,28.30
2022-08-05T18:25:39.058Z,29.28
2022-08-05T18:28:07.329Z,30.68
2022-08-05T18:30:36.676Z,30.66
2022-08-05T18:33:08.550Z,30.45
2022-08-05T18:36:01.086Z,30.72
2022-08-05T18:38:28.578Z,31.19
2022-08-05T18:41:57.574Z,31.12
2022-08-05T18:43:49.028Z,31.23
2022-08-05T18:46:19.787Z,31.47
2022-08-05T18:48:51.811Z,31.74
2022-08-05T18:52:05.876Z,32.22
2022-08-05T18:54:31.700Z,32.02
2022-08-05T18:57:00.914Z,32.83
2022-08-05T18:59:43.619Z,32.84
2022-08-05T19:02:27.761Z,32.23
2022-08-05T19:05:03.236Z,32.67
2022-08-05T19:07:45.959Z,33.43
2022-08-05T19:10:15.860Z,34.02
2022-08-05T19:12:46.050Z,34.19
2022-08-05T19:15:57.677Z,34.81
2022-08-05T19:18:09.478Z,34.17
2022-08-05T19:20:41.841Z,34.04
2022-08-05T19:24:03.523Z,34.69
2022-08-05T19:26:09.343Z,34.61
2022-08-05T19:28:42.192Z,35.05
2022-08-05T19:31:09.793Z,35.75
2022-08-05T19:33:48.176Z,35.39
2022-08-05T19:36:25.123Z,35.39
2022-08-05T19:38:53.827Z,35.29
2022-08-05T19:41:22.183Z,35.23
2022-08-05T19:44:13.223Z,35.49
2022-08-05T19:46:41.093Z,35.13
2022-08-05T19:49:12.580Z,34.69
2022-08-05T19:52:08.431Z,34.88
2022-08-05T19:54:32.909Z,35.37
2022-08-05T19:57:06.859Z,36.19
2022-08-05T19:59:55.054Z,35.98
2022-08-05T20:02:26.465Z,35.48
2022-08-05T20:04:59.178Z,35.10
2022-08-05T20:07:46.538Z,34.83
2022-08-05T20:10:15.424Z,35.05
2022-08-05T20:12:46.083Z,35.18
2022-08-05T20:15:47.736Z,35.44
2022-08-05T20:18:09.697Z,34.00
2022-08-05T20:20:38.866Z,34.66
2022-08-05T20:23:05.889Z,34.74
2022-08-05T20:25:40.143Z,35.27
2022-08-05T20:28:08.041Z,35.38
2022-08-05T20:30:40.620Z,35.54
2022-08-05T20:33:08.919Z,35.79
2022-08-05T20:35:40.612Z,35.09
2022-08-05T20:38:20.107Z,34.95
2022-08-05T20:40:56.279Z,34.92
2022-08-05T20:43:57.611Z,34.62
2022-08-05T20:46:12.427Z,34.96
2022-08-05T20:48:45.468Z,36.01
2022-08-05T20:51:17.986Z,35.99
2022-08-05T20:53:56.248Z,37.18
2022-08-05T20:56:29.769Z,36.30
2022-08-05T20:59:00.098Z,36.44
2022-08-05T21:01:38.444Z,36.19
2022-08-05T21:04:10.551Z,37.24
2022-08-05T21:06:37.949Z,37.25
2022-08-05T21:09:12.494Z,37.21
2022-08-05T21:12:07.479Z,36.44
2022-08-05T21:14:28.608Z,37.27
2022-08-05T21:17:01.339Z,36.41
2022-08-05T21:19:46.898Z,37.19
2022-08-05T21:22:18.292Z,37.35
2022-08-05T21:24:51.957Z,38.20
2022-08-05T21:27:20.391Z,38.07
2022-08-05T21:29:51.565Z,38.40
2022-08-05T21:32:20.032Z,38.82
2022-08-05T21:34:55.924Z,37.87
2022-08-05T21:37:35.003Z,38.45
2022-08-05T21:40:13.093Z,37.91
2022-08-05T21:42:44.755Z,38.24
2022-08-05T21:45:24.717Z,38.08
2022-08-05T21:48:02.166Z,38.08
2022-08-05T21:50:33.460Z,38.28
2022-08-05T21:53:08.300Z,39.66
2022-08-05T21:56:05.924Z,38.78
2022-08-05T21:58:31.853Z,39.14
2022-08-05T22:00:59.610Z,39.91
2022-08-05T22:03:49.026Z,39.18
2022-08-05T22:06:13.391Z,39.36
2022-08-05T22:08:42.794Z,39.28
2022-08-05T22:11:15.607Z,39.33
2022-08-05T22:14:06.460Z,39.18
2022-08-05T22:16:41.938Z,39.10
2022-08-05T22:20:00.767Z,40.23
2022-08-05T22:22:05.268Z,40.19
2022-08-05T22:24:51.789Z,39.95
2022-08-05T22:28:10.622Z,39.81
2022-08-05T22:30:56.200Z,39.51
2022-08-05T22:33:56.787Z,39.08
2022-08-05T22:36:15.507Z,39.88
2022-08-05T22:38:43.631Z,40.49
2022-08-05T22:41:15.985Z,39.96
2022-08-05T22:44:02.844Z,40.34
2022-08-05T22:46:29.917Z,40.35
2022-08-05T22:48:56.824Z,41.52
2022-08-05T22:52:02.589Z,40.64
2022-08-05T22:54:11.220Z,40.86
2022-08-05T22:56:39.832Z,40.84
2022-08-05T22:59:43.916Z,40.50
2022-08-05T23:02:05.930Z,40.28
2022-08-05T23:04:34.443Z,40.88
2022-08-05T23:07:01.801Z,40.82
2022-08-05T23:09:57.531Z,40.16
2022-08-05T23:12:17.975Z,40.16
2022-08-05T23:14:44.840Z,40.45
2022-08-05T23:17:24.517Z,41.31
2022-08-05T23:20:00.456Z,41.60
2022-08-05T23:22:27.907Z,41.04
2022-08-05T23:24:55.201Z,41.35
2022-08-05T23:27:22.728Z,41.58
2022-08-05T23:29:51.877Z,41.65
2022-08-05T23:32:22.447Z,41.39
2022-08-05T23:34:50.878Z,41.38
2022-08-05T23:37:18.117Z,41.29
2022-08-05T23:39:53.854Z,41.14
2022-08-05T23:42:23.536Z,41.22
2022-08-05T23:44:56.386Z,41.62
2022-08-05T23:47:25.041Z,41.52
2022-08-05T23:49:55.617Z,42.17
2022-08-05T23:52:30.538Z,41.71
2022-08-05T23:55:02.228Z,41.32
2022-08-05T23:57:32.212Z,41.49
